sensor_id;sensor_type;location;lat;lon;timestamp;P1;durP1;ratioP1;P2;durP2;ratioP2
27800;SDS011;15181;49.112;11.930;2022-10-31T00:00:45;24.60;;;22.33;;
27800;SDS011;15181;49.112;11.930;2022-10-31T00:03:12;25.67;;;23.42;;
27800;SDS011;15181;49.112;11.930;2022-10-31T00:05:40;27.92;;;25.33;;
27800;SDS011;15181;49.112;11.930;2022-10-31T00:08:12;25.95;;;23.65;;
27800;SDS011;15181;49.112;11.930;2022-10-31T00:10:41;26.15;;;23.63;;
27800;SDS011;15181;49.112;11.930;2022-10-31T00:13:10;26.10;;;23.55;;
27800;SDS011;15181;49.112;11.930;2022-10-31T00:15:38;24.42;;;22.23;;
27800;SDS011;15181;49.112;11.930;2022-10-31T00:18:06;24.35;;;21.98;;
27800;SDS011;15181;49.112;11.930;2022-10-31T00:20:35;22.83;;;20.83;;
27800;SDS011;15181;49.112;11.930;2022-10-31T00:23:03;23.23;;;21.10;;
27800;SDS011;15181;49.112;11.930;2022-10-31T00:25:34;23.77;;;20.83;;
27800;SDS011;15181;49.112;11.930;2022-10-31T00:28:03;23.52;;;21.05;;
27800;SDS011;15181;49.112;11.930;2022-10-31T00:30:31;26.55;;;22.60;;
27800;SDS011;15181;49.112;11.930;2022-10-31T00:32:59;25.83;;;22.88;;
27800;SDS011;15181;49.112;11.930;2022-10-31T00:35:26;31.15;;;25.08;;
27800;SDS011;15181;49.112;11.930;2022-10-31T00:37:53;30.65;;;27.35;;
27800;SDS011;15181;49.112;11.930;2022-10-31T00:40:20;43.70;;;30.60;;
27800;SDS011;15181;49.112;11.930;2022-10-31T00:42:49;32.80;;;29.13;;
27800;SDS011;15181;49.112;11.930;2022-10-31T00:45:16;30.13;;;27.13;;
27800;SDS011;15181;49.112;11.930;2022-10-31T00:47:45;29.05;;;26.45;;
27800;SDS011;15181;49.112;11.930;2022-10-31T00:50:12;26.45;;;24.38;;
27800;SDS011;15181;49.112;11.930;2022-10-31T00:52:39;26.70;;;24.40;;
27800;SDS011;15181;49.112;11.930;2022-10-31T00:55:07;26.52;;;24.13;;
27800;SDS011;15181;49.112;11.930;2022-10-31T00:57:34;25.65;;;23.20;;
27800;SDS011;15181;49.112;11.930;2022-10-31T01:00:03;89.35;;;29.63;;
27800;SDS011;15181;49.112;11.930;2022-10-31T01:02:31;90.38;;;33.67;;
27800;SDS011;15181;49.112;11.930;2022-10-31T01:04:58;40.42;;;28.27;;
27800;SDS011;15181;49.112;11.930;2022-10-31T01:07:25;26.95;;;24.65;;
27800;SDS011;15181;49.112;11.930;2022-10-31T01:09:52;31.40;;;28.55;;
27800;SDS011;15181;49.112;11.930;2022-10-31T01:12:19;37.75;;;33.88;;
27800;SDS011;15181;49.112;11.930;2022-10-31T01:14:47;26.88;;;24.52;;
27800;SDS011;15181;49.112;11.930;2022-10-31T01:17:15;29.27;;;26.67;;
27800;SDS011;15181;49.112;11.930;2022-10-31T01:19:42;27.98;;;25.38;;
27800;SDS011;15181;49.112;11.930;2022-10-31T01:22:11;27.02;;;24.67;;
27800;SDS011;15181;49.112;11.930;2022-10-31T01:24:38;25.65;;;23.05;;
27800;SDS011;15181;49.112;11.930;2022-10-31T01:27:05;23.50;;;21.48;;
27800;SDS011;15181;49.112;11.930;2022-10-31T01:29:32;24.13;;;21.92;;
27800;SDS011;15181;49.112;11.930;2022-10-31T01:32:00;27.40;;;24.58;;
27800;SDS011;15181;49.112;11.930;2022-10-31T01:34:29;29.90;;;26.77;;
27800;SDS011;15181;49.112;11.930;2022-10-31T01:36:56;27.00;;;24.52;;
27800;SDS011;15181;49.112;11.930;2022-10-31T01:39:23;24.92;;;22.50;;
27800;SDS011;15181;49.112;11.930;2022-10-31T01:41:51;23.48;;;21.58;;
27800;SDS011;15181;49.112;11.930;2022-10-31T01:47:17;27.10;;;24.73;;
27800;SDS011;15181;49.112;11.930;2022-10-31T01:49:52;25.58;;;23.15;;
27800;SDS011;15181;49.112;11.930;2022-10-31T01:52:24;26.02;;;23.63;;
27800;SDS011;15181;49.112;11.930;2022-10-31T01:54:55;32.47;;;26.80;;
27800;SDS011;15181;49.112;11.930;2022-10-31T01:57:27;75.15;;;31.85;;
27800;SDS011;15181;49.112;11.930;2022-10-31T01:59:57;29.13;;;26.23;;
27800;SDS011;15181;49.112;11.930;2022-10-31T02:02:27;23.83;;;21.67;;
27800;SDS011;15181;49.112;11.930;2022-10-31T02:05:02;23.08;;;20.85;;
27800;SDS011;15181;49.112;11.930;2022-10-31T02:07:33;24.73;;;21.42;;
27800;SDS011;15181;49.112;11.930;2022-10-31T02:10:05;21.48;;;19.58;;
27800;SDS011;15181;49.112;11.930;2022-10-31T02:12:33;21.67;;;19.70;;
27800;SDS011;15181;49.112;11.930;2022-10-31T02:15:03;21.73;;;19.92;;
27800;SDS011;15181;49.112;11.930;2022-10-31T02:17:30;22.65;;;20.67;;
27800;SDS011;15181;49.112;11.930;2022-10-31T02:20:04;23.70;;;21.48;;
27800;SDS011;15181;49.112;11.930;2022-10-31T02:22:46;25.42;;;23.27;;
27800;SDS011;15181;49.112;11.930;2022-10-31T02:31:34;21.92;;;19.52;;
27800;SDS011;15181;49.112;11.930;2022-10-31T02:34:09;20.88;;;19.13;;
27800;SDS011;15181;49.112;11.930;2022-10-31T02:36:46;20.55;;;18.85;;
27800;SDS011;15181;49.112;11.930;2022-10-31T02:39:22;20.05;;;18.33;;
27800;SDS011;15181;49.112;11.930;2022-10-31T02:41:56;20.33;;;18.55;;
27800;SDS011;15181;49.112;11.930;2022-10-31T02:44:31;19.80;;;17.98;;
27800;SDS011;15181;49.112;11.930;2022-10-31T02:47:05;19.75;;;17.95;;
27800;SDS011;15181;49.112;11.930;2022-10-31T02:49:37;21.10;;;19.38;;
27800;SDS011;15181;49.112;11.930;2022-10-31T02:52:13;21.33;;;19.27;;
27800;SDS011;15181;49.112;11.930;2022-10-31T02:54:44;20.17;;;18.52;;
27800;SDS011;15181;49.112;11.930;2022-10-31T02:57:13;19.67;;;18.17;;
27800;SDS011;15181;49.112;11.930;2022-10-31T02:59:53;19.55;;;17.88;;
27800;SDS011;15181;49.112;11.930;2022-10-31T03:02:32;20.13;;;18.52;;
27800;SDS011;15181;49.112;11.930;2022-10-31T03:08:06;20.27;;;18.40;;
27800;SDS011;15181;49.112;11.930;2022-10-31T03:10:40;20.52;;;18.98;;
27800;SDS011;15181;49.112;11.930;2022-10-31T03:13:12;19.70;;;18.10;;
27800;SDS011;15181;49.112;11.930;2022-10-31T03:15:48;21.23;;;19.25;;
27800;SDS011;15181;49.112;11.930;2022-10-31T03:18:20;20.77;;;19.10;;
27800;SDS011;15181;49.112;11.930;2022-10-31T03:20:50;30.38;;;21.80;;
27800;SDS011;15181;49.112;11.930;2022-10-31T03:23:21;21.05;;;19.10;;
27800;SDS011;15181;49.112;11.930;2022-10-31T03:25:50;21.90;;;19.60;;
27800;SDS011;15181;49.112;11.930;2022-10-31T03:28:22;21.42;;;18.92;;
27800;SDS011;15181;49.112;11.930;2022-10-31T03:30:54;20.80;;;19.00;;
27800;SDS011;15181;49.112;11.930;2022-10-31T03:33:28;20.77;;;18.98;;
27800;SDS011;15181;49.112;11.930;2022-10-31T03:35:59;19.05;;;17.52;;
27800;SDS011;15181;49.112;11.930;2022-10-31T03:38:28;19.52;;;17.92;;
27800;SDS011;15181;49.112;11.930;2022-10-31T03:40:58;18.67;;;17.05;;
27800;SDS011;15181;49.112;11.930;2022-10-31T03:43:28;18.55;;;17.23;;
27800;SDS011;15181;49.112;11.930;2022-10-31T03:45:59;18.10;;;16.80;;
27800;SDS011;15181;49.112;11.930;2022-10-31T03:48:28;19.05;;;17.42;;
27800;SDS011;15181;49.112;11.930;2022-10-31T03:50:57;19.27;;;17.67;;
27800;SDS011;15181;49.112;11.930;2022-10-31T03:53:30;18.25;;;16.70;;
27800;SDS011;15181;49.112;11.930;2022-10-31T03:56:01;19.05;;;17.55;;
27800;SDS011;15181;49.112;11.930;2022-10-31T03:58:34;19.52;;;18.00;;
27800;SDS011;15181;49.112;11.930;2022-10-31T04:01:06;19.75;;;18.10;;
27800;SDS011;15181;49.112;11.930;2022-10-31T04:03:39;21.40;;;19.38;;
27800;SDS011;15181;49.112;11.930;2022-10-31T04:06:08;20.70;;;18.83;;
27800;SDS011;15181;49.112;11.930;2022-10-31T04:08:41;21.88;;;20.08;;
27800;SDS011;15181;49.112;11.930;2022-10-31T04:11:12;22.23;;;20.05;;
27800;SDS011;15181;49.112;11.930;2022-10-31T04:13:42;20.25;;;18.38;;
27800;SDS011;15181;49.112;11.930;2022-10-31T04:16:11;21.67;;;19.75;;
27800;SDS011;15181;49.112;11.930;2022-10-31T04:18:41;21.70;;;19.77;;
27800;SDS011;15181;49.112;11.930;2022-10-31T04:21:09;22.60;;;20.30;;
27800;SDS011;15181;49.112;11.930;2022-10-31T04:23:36;21.92;;;20.23;;
27800;SDS011;15181;49.112;11.930;2022-10-31T04:26:03;22.25;;;20.25;;
27800;SDS011;15181;49.112;11.930;2022-10-31T04:28:30;20.83;;;19.30;;
27800;SDS011;15181;49.112;11.930;2022-10-31T04:30:58;21.23;;;19.70;;
27800;SDS011;15181;49.112;11.930;2022-10-31T04:33:26;22.65;;;20.55;;
27800;SDS011;15181;49.112;11.930;2022-10-31T04:35:55;20.23;;;18.73;;
27800;SDS011;15181;49.112;11.930;2022-10-31T04:38:23;21.38;;;19.58;;
27800;SDS011;15181;49.112;11.930;2022-10-31T04:40:50;20.60;;;19.10;;
27800;SDS011;15181;49.112;11.930;2022-10-31T04:43:17;20.65;;;19.02;;
27800;SDS011;15181;49.112;11.930;2022-10-31T04:45:44;21.50;;;19.55;;
27800;SDS011;15181;49.112;11.930;2022-10-31T04:48:11;21.50;;;19.60;;
27800;SDS011;15181;49.112;11.930;2022-10-31T04:50:38;22.80;;;20.90;;
27800;SDS011;15181;49.112;11.930;2022-10-31T04:53:07;22.50;;;20.75;;
27800;SDS011;15181;49.112;11.930;2022-10-31T04:55:35;22.65;;;21.00;;
27800;SDS011;15181;49.112;11.930;2022-10-31T04:58:02;21.50;;;19.70;;
27800;SDS011;15181;49.112;11.930;2022-10-31T05:00:30;22.33;;;20.52;;
27800;SDS011;15181;49.112;11.930;2022-10-31T05:02:57;20.92;;;19.33;;
27800;SDS011;15181;49.112;11.930;2022-10-31T05:05:25;22.67;;;20.48;;
27800;SDS011;15181;49.112;11.930;2022-10-31T05:07:54;24.73;;;22.60;;
27800;SDS011;15181;49.112;11.930;2022-10-31T05:10:24;23.95;;;21.83;;
27800;SDS011;15181;49.112;11.930;2022-10-31T05:12:54;33.72;;;23.67;;
27800;SDS011;15181;49.112;11.930;2022-10-31T05:15:22;23.10;;;21.13;;
27800;SDS011;15181;49.112;11.930;2022-10-31T05:17:50;22.63;;;20.85;;
27800;SDS011;15181;49.112;11.930;2022-10-31T05:20:19;25.65;;;23.23;;
27800;SDS011;15181;49.112;11.930;2022-10-31T05:22:48;25.98;;;23.30;;
27800;SDS011;15181;49.112;11.930;2022-10-31T05:25:17;26.90;;;24.27;;
27800;SDS011;15181;49.112;11.930;2022-10-31T05:27:47;23.23;;;21.33;;
27800;SDS011;15181;49.112;11.930;2022-10-31T05:30:18;27.48;;;22.65;;
27800;SDS011;15181;49.112;11.930;2022-10-31T05:32:47;27.75;;;22.58;;
27800;SDS011;15181;49.112;11.930;2022-10-31T05:35:16;35.78;;;24.40;;
27800;SDS011;15181;49.112;11.930;2022-10-31T05:37:44;132.82;;;31.90;;
27800;SDS011;15181;49.112;11.930;2022-10-31T05:40:12;43.95;;;24.33;;
27800;SDS011;15181;49.112;11.930;2022-10-31T05:42:42;28.27;;;24.17;;
27800;SDS011;15181;49.112;11.930;2022-10-31T05:45:13;24.63;;;22.38;;
27800;SDS011;15181;49.112;11.930;2022-10-31T05:47:41;26.13;;;23.95;;
27800;SDS011;15181;49.112;11.930;2022-10-31T05:50:09;26.23;;;23.50;;
27800;SDS011;15181;49.112;11.930;2022-10-31T05:52:36;28.27;;;23.77;;
27800;SDS011;15181;49.112;11.930;2022-10-31T05:55:03;25.13;;;22.83;;
27800;SDS011;15181;49.112;11.930;2022-10-31T05:57:31;25.25;;;22.77;;
27800;SDS011;15181;49.112;11.930;2022-10-31T05:59:59;23.40;;;21.60;;
27800;SDS011;15181;49.112;11.930;2022-10-31T06:02:29;23.80;;;21.88;;
27800;SDS011;15181;49.112;11.930;2022-10-31T06:04:59;24.25;;;21.88;;
27800;SDS011;15181;49.112;11.930;2022-10-31T06:07:26;23.05;;;21.25;;
27800;SDS011;15181;49.112;11.930;2022-10-31T06:09:58;24.17;;;21.90;;
27800;SDS011;15181;49.112;11.930;2022-10-31T06:12:25;25.92;;;23.55;;
27800;SDS011;15181;49.112;11.930;2022-10-31T06:14:52;25.40;;;23.30;;
27800;SDS011;15181;49.112;11.930;2022-10-31T06:17:19;26.42;;;24.30;;
27800;SDS011;15181;49.112;11.930;2022-10-31T06:19:48;29.92;;;22.55;;
27800;SDS011;15181;49.112;11.930;2022-10-31T06:22:15;22.95;;;21.15;;
27800;SDS011;15181;49.112;11.930;2022-10-31T06:24:42;30.65;;;21.88;;
27800;SDS011;15181;49.112;11.930;2022-10-31T06:27:09;31.63;;;22.15;;
27800;SDS011;15181;49.112;11.930;2022-10-31T06:29:38;24.80;;;22.42;;
27800;SDS011;15181;49.112;11.930;2022-10-31T06:32:05;60.53;;;27.52;;
27800;SDS011;15181;49.112;11.930;2022-10-31T06:34:36;23.65;;;21.60;;
27800;SDS011;15181;49.112;11.930;2022-10-31T06:37:05;24.50;;;22.15;;
27800;SDS011;15181;49.112;11.930;2022-10-31T06:39:32;24.30;;;21.63;;
27800;SDS011;15181;49.112;11.930;2022-10-31T06:41:59;23.90;;;21.50;;
27800;SDS011;15181;49.112;11.930;2022-10-31T06:44:27;23.15;;;21.05;;
27800;SDS011;15181;49.112;11.930;2022-10-31T06:46:54;21.65;;;19.98;;
27800;SDS011;15181;49.112;11.930;2022-10-31T06:49:24;21.95;;;20.15;;
27800;SDS011;15181;49.112;11.930;2022-10-31T06:51:51;22.05;;;20.17;;
27800;SDS011;15181;49.112;11.930;2022-10-31T06:54:20;23.42;;;21.20;;
27800;SDS011;15181;49.112;11.930;2022-10-31T06:56:47;30.60;;;21.08;;
27800;SDS011;15181;49.112;11.930;2022-10-31T06:59:14;21.95;;;19.95;;
27800;SDS011;15181;49.112;11.930;2022-10-31T07:01:42;21.65;;;19.80;;
27800;SDS011;15181;49.112;11.930;2022-10-31T07:04:09;21.35;;;19.73;;
27800;SDS011;15181;49.112;11.930;2022-10-31T07:06:38;21.33;;;19.65;;
27800;SDS011;15181;49.112;11.930;2022-10-31T07:09:05;36.78;;;20.80;;
27800;SDS011;15181;49.112;11.930;2022-10-31T07:11:33;41.67;;;21.20;;
27800;SDS011;15181;49.112;11.930;2022-10-31T07:14:01;111.32;;;24.08;;
27800;SDS011;15181;49.112;11.930;2022-10-31T07:16:29;20.58;;;19.00;;
27800;SDS011;15181;49.112;11.930;2022-10-31T07:18:58;20.75;;;19.35;;
27800;SDS011;15181;49.112;11.930;2022-10-31T07:21:25;71.88;;;23.65;;
27800;SDS011;15181;49.112;11.930;2022-10-31T07:23:54;117.32;;;28.63;;
27800;SDS011;15181;49.112;11.930;2022-10-31T07:26:21;42.35;;;21.25;;
27800;SDS011;15181;49.112;11.930;2022-10-31T07:28:49;63.90;;;22.90;;
27800;SDS011;15181;49.112;11.930;2022-10-31T07:31:17;75.40;;;26.10;;
27800;SDS011;15181;49.112;11.930;2022-10-31T07:33:44;60.83;;;23.30;;
27800;SDS011;15181;49.112;11.930;2022-10-31T07:36:11;21.77;;;20.27;;
27800;SDS011;15181;49.112;11.930;2022-10-31T07:38:38;64.90;;;22.90;;
27800;SDS011;15181;49.112;11.930;2022-10-31T07:41:05;96.22;;;30.17;;
27800;SDS011;15181;49.112;11.930;2022-10-31T07:43:32;32.58;;;22.23;;
27800;SDS011;15181;49.112;11.930;2022-10-31T07:46:00;25.40;;;21.85;;
27800;SDS011;15181;49.112;11.930;2022-10-31T07:48:27;22.75;;;20.80;;
27800;SDS011;15181;49.112;11.930;2022-10-31T07:50:55;21.25;;;19.75;;
27800;SDS011;15181;49.112;11.930;2022-10-31T07:53:22;43.35;;;22.20;;
27800;SDS011;15181;49.112;11.930;2022-10-31T07:55:50;48.30;;;21.13;;
27800;SDS011;15181;49.112;11.930;2022-10-31T07:58:17;20.35;;;18.48;;
27800;SDS011;15181;49.112;11.930;2022-10-31T08:00:44;19.63;;;18.23;;
27800;SDS011;15181;49.112;11.930;2022-10-31T08:03:15;19.42;;;18.00;;
27800;SDS011;15181;49.112;11.930;2022-10-31T08:05:44;19.35;;;17.80;;
27800;SDS011;15181;49.112;11.930;2022-10-31T08:08:12;18.80;;;17.60;;
27800;SDS011;15181;49.112;11.930;2022-10-31T08:10:41;19.38;;;17.88;;
27800;SDS011;15181;49.112;11.930;2022-10-31T08:13:09;18.35;;;17.20;;
27800;SDS011;15181;49.112;11.930;2022-10-31T08:15:37;18.60;;;17.50;;
27800;SDS011;15181;49.112;11.930;2022-10-31T08:18:05;42.60;;;20.63;;
27800;SDS011;15181;49.112;11.930;2022-10-31T08:20:37;19.55;;;18.20;;
27800;SDS011;15181;49.112;11.930;2022-10-31T08:23:04;19.15;;;17.40;;
27800;SDS011;15181;49.112;11.930;2022-10-31T08:25:32;18.75;;;17.42;;
27800;SDS011;15181;49.112;11.930;2022-10-31T08:28:03;18.38;;;17.20;;
27800;SDS011;15181;49.112;11.930;2022-10-31T08:30:31;17.60;;;16.60;;
27800;SDS011;15181;49.112;11.930;2022-10-31T08:33:01;20.67;;;19.23;;
27800;SDS011;15181;49.112;11.930;2022-10-31T08:35:31;21.45;;;19.95;;
27800;SDS011;15181;49.112;11.930;2022-10-31T08:38:01;20.98;;;19.58;;
27800;SDS011;15181;49.112;11.930;2022-10-31T08:40:29;21.13;;;19.73;;
27800;SDS011;15181;49.112;11.930;2022-10-31T08:42:58;20.83;;;19.42;;
27800;SDS011;15181;49.112;11.930;2022-10-31T08:45:27;20.58;;;19.17;;
27800;SDS011;15181;49.112;11.930;2022-10-31T08:47:58;20.00;;;18.70;;
27800;SDS011;15181;49.112;11.930;2022-10-31T08:50:27;18.75;;;17.58;;
27800;SDS011;15181;49.112;11.930;2022-10-31T08:53:00;19.48;;;18.25;;
27800;SDS011;15181;49.112;11.930;2022-10-31T08:55:28;19.10;;;17.90;;
27800;SDS011;15181;49.112;11.930;2022-10-31T08:57:56;23.35;;;21.45;;
27800;SDS011;15181;49.112;11.930;2022-10-31T09:00:23;22.17;;;20.55;;
27800;SDS011;15181;49.112;11.930;2022-10-31T09:03:00;19.80;;;18.50;;
27800;SDS011;15181;49.112;11.930;2022-10-31T09:05:28;18.95;;;17.65;;
27800;SDS011;15181;49.112;11.930;2022-10-31T09:07:56;18.50;;;17.40;;
27800;SDS011;15181;49.112;11.930;2022-10-31T09:13:07;18.45;;;17.35;;
27800;SDS011;15181;49.112;11.930;2022-10-31T09:15:39;17.63;;;16.60;;
27800;SDS011;15181;49.112;11.930;2022-10-31T09:18:10;17.85;;;16.75;;
27800;SDS011;15181;49.112;11.930;2022-10-31T09:20:38;18.25;;;17.08;;
27800;SDS011;15181;49.112;11.930;2022-10-31T09:23:08;18.40;;;17.27;;
27800;SDS011;15181;49.112;11.930;2022-10-31T09:25:38;19.10;;;17.83;;
27800;SDS011;15181;49.112;11.930;2022-10-31T09:28:09;18.75;;;17.55;;
27800;SDS011;15181;49.112;11.930;2022-10-31T09:30:38;19.83;;;18.52;;
27800;SDS011;15181;49.112;11.930;2022-10-31T09:33:06;20.33;;;18.92;;
27800;SDS011;15181;49.112;11.930;2022-10-31T09:35:36;20.27;;;18.52;;
27800;SDS011;15181;49.112;11.930;2022-10-31T09:38:04;19.90;;;18.63;;
27800;SDS011;15181;49.112;11.930;2022-10-31T09:40:34;22.95;;;20.95;;
27800;SDS011;15181;49.112;11.930;2022-10-31T09:43:07;25.00;;;23.10;;
27800;SDS011;15181;49.112;11.930;2022-10-31T09:45:43;23.98;;;22.27;;
27800;SDS011;15181;49.112;11.930;2022-10-31T09:48:25;23.40;;;21.38;;
27800;SDS011;15181;49.112;11.930;2022-10-31T09:51:00;23.70;;;21.90;;
27800;SDS011;15181;49.112;11.930;2022-10-31T09:53:34;23.55;;;21.58;;
27800;SDS011;15181;49.112;11.930;2022-10-31T09:56:07;24.15;;;22.02;;
27800;SDS011;15181;49.112;11.930;2022-10-31T09:58:41;22.80;;;21.00;;
27800;SDS011;15181;49.112;11.930;2022-10-31T10:01:16;22.67;;;21.13;;
27800;SDS011;15181;49.112;11.930;2022-10-31T10:04:10;23.38;;;21.60;;
27800;SDS011;15181;49.112;11.930;2022-10-31T10:07:06;22.58;;;20.98;;
27800;SDS011;15181;49.112;11.930;2022-10-31T10:09:40;23.50;;;21.77;;
27800;SDS011;15181;49.112;11.930;2022-10-31T10:12:09;22.95;;;21.25;;
27800;SDS011;15181;49.112;11.930;2022-10-31T10:14:51;23.67;;;21.77;;
27800;SDS011;15181;49.112;11.930;2022-10-31T10:17:33;23.92;;;22.13;;
27800;SDS011;15181;49.112;11.930;2022-10-31T10:20:10;23.20;;;21.35;;
27800;SDS011;15181;49.112;11.930;2022-10-31T10:22:52;24.67;;;22.67;;
27800;SDS011;15181;49.112;11.930;2022-10-31T10:25:28;24.35;;;22.55;;
27800;SDS011;15181;49.112;11.930;2022-10-31T10:28:02;24.30;;;22.50;;
27800;SDS011;15181;49.112;11.930;2022-10-31T10:30:42;24.75;;;22.75;;
27800;SDS011;15181;49.112;11.930;2022-10-31T10:33:14;24.17;;;22.20;;
27800;SDS011;15181;49.112;11.930;2022-10-31T10:35:49;24.92;;;22.95;;
27800;SDS011;15181;49.112;11.930;2022-10-31T10:38:21;24.27;;;22.40;;
27800;SDS011;15181;49.112;11.930;2022-10-31T10:43:23;23.98;;;22.02;;
27800;SDS011;15181;49.112;11.930;2022-10-31T10:45:57;23.55;;;21.95;;
27800;SDS011;15181;49.112;11.930;2022-10-31T10:48:49;23.60;;;21.90;;
27800;SDS011;15181;49.112;11.930;2022-10-31T10:51:21;22.65;;;20.95;;
27800;SDS011;15181;49.112;11.930;2022-10-31T10:53:53;23.92;;;22.00;;
27800;SDS011;15181;49.112;11.930;2022-10-31T10:56:59;23.52;;;21.83;;
27800;SDS011;15181;49.112;11.930;2022-10-31T10:59:33;24.33;;;22.25;;
27800;SDS011;15181;49.112;11.930;2022-10-31T11:02:03;23.05;;;21.10;;
27800;SDS011;15181;49.112;11.930;2022-10-31T11:04:40;24.67;;;22.45;;
27800;SDS011;15181;49.112;11.930;2022-10-31T11:07:10;25.05;;;23.02;;
27800;SDS011;15181;49.112;11.930;2022-10-31T11:09:38;24.80;;;22.75;;
27800;SDS011;15181;49.112;11.930;2022-10-31T11:12:06;24.58;;;22.58;;
27800;SDS011;15181;49.112;11.930;2022-10-31T11:14:35;25.38;;;23.38;;
27800;SDS011;15181;49.112;11.930;2022-10-31T11:17:17;25.33;;;23.08;;
27800;SDS011;15181;49.112;11.930;2022-10-31T11:19:48;26.17;;;23.73;;
27800;SDS011;15181;49.112;11.930;2022-10-31T11:22:28;25.08;;;23.05;;
27800;SDS011;15181;49.112;11.930;2022-10-31T11:24:58;24.50;;;22.63;;
27800;SDS011;15181;49.112;11.930;2022-10-31T11:27:25;24.63;;;22.55;;
27800;SDS011;15181;49.112;11.930;2022-10-31T11:30:03;24.38;;;22.58;;
27800;SDS011;15181;49.112;11.930;2022-10-31T11:32:33;24.75;;;22.90;;
27800;SDS011;15181;49.112;11.930;2022-10-31T11:35:00;24.70;;;22.77;;
27800;SDS011;15181;49.112;11.930;2022-10-31T11:37:34;24.02;;;22.25;;
27800;SDS011;15181;49.112;11.930;2022-10-31T11:40:15;25.15;;;23.13;;
27800;SDS011;15181;49.112;11.930;2022-10-31T11:42:45;23.77;;;21.83;;
27800;SDS011;15181;49.112;11.930;2022-10-31T11:45:16;23.90;;;22.00;;
27800;SDS011;15181;49.112;11.930;2022-10-31T11:47:55;25.02;;;22.92;;
27800;SDS011;15181;49.112;11.930;2022-10-31T11:50:27;24.33;;;22.38;;
27800;SDS011;15181;49.112;11.930;2022-10-31T11:52:57;26.98;;;24.45;;
27800;SDS011;15181;49.112;11.930;2022-10-31T11:55:30;26.17;;;23.60;;
27800;SDS011;15181;49.112;11.930;2022-10-31T11:58:01;23.83;;;21.92;;
27800;SDS011;15181;49.112;11.930;2022-10-31T12:00:29;24.48;;;22.38;;
27800;SDS011;15181;49.112;11.930;2022-10-31T12:03:09;24.88;;;22.90;;
27800;SDS011;15181;49.112;11.930;2022-10-31T12:05:40;25.45;;;23.35;;
27800;SDS011;15181;49.112;11.930;2022-10-31T12:08:09;24.38;;;22.48;;
27800;SDS011;15181;49.112;11.930;2022-10-31T12:10:41;24.90;;;22.90;;
27800;SDS011;15181;49.112;11.930;2022-10-31T12:13:21;25.13;;;22.70;;
27800;SDS011;15181;49.112;11.930;2022-10-31T12:15:59;24.90;;;22.58;;
27800;SDS011;15181;49.112;11.930;2022-10-31T12:18:47;25.48;;;23.48;;
27800;SDS011;15181;49.112;11.930;2022-10-31T12:21:27;24.55;;;22.50;;
27800;SDS011;15181;49.112;11.930;2022-10-31T12:24:07;24.80;;;22.80;;
27800;SDS011;15181;49.112;11.930;2022-10-31T12:26:45;24.52;;;22.63;;
27800;SDS011;15181;49.112;11.930;2022-10-31T12:29:30;24.05;;;21.92;;
27800;SDS011;15181;49.112;11.930;2022-10-31T12:32:15;25.33;;;23.17;;
27800;SDS011;15181;49.112;11.930;2022-10-31T12:35:01;24.17;;;22.17;;
27800;SDS011;15181;49.112;11.930;2022-10-31T12:37:46;25.98;;;23.42;;
27800;SDS011;15181;49.112;11.930;2022-10-31T12:40:29;24.70;;;22.42;;
27800;SDS011;15181;49.112;11.930;2022-10-31T12:43:16;24.33;;;22.38;;
27800;SDS011;15181;49.112;11.930;2022-10-31T12:45:57;24.80;;;22.70;;
27800;SDS011;15181;49.112;11.930;2022-10-31T12:48:44;24.52;;;22.50;;
27800;SDS011;15181;49.112;11.930;2022-10-31T12:51:33;25.73;;;23.52;;
27800;SDS011;15181;49.112;11.930;2022-10-31T12:54:12;25.83;;;23.50;;
27800;SDS011;15181;49.112;11.930;2022-10-31T12:56:52;26.35;;;24.15;;
27800;SDS011;15181;49.112;11.930;2022-10-31T12:59:28;26.33;;;24.00;;
27800;SDS011;15181;49.112;11.930;2022-10-31T13:02:02;26.88;;;24.65;;
27800;SDS011;15181;49.112;11.930;2022-10-31T13:04:40;27.00;;;24.45;;
27800;SDS011;15181;49.112;11.930;2022-10-31T13:07:15;28.13;;;25.60;;
27800;SDS011;15181;49.112;11.930;2022-10-31T13:09:52;28.30;;;25.67;;
27800;SDS011;15181;49.112;11.930;2022-10-31T13:12:24;27.70;;;24.95;;
27800;SDS011;15181;49.112;11.930;2022-10-31T13:14:57;29.05;;;26.60;;
27800;SDS011;15181;49.112;11.930;2022-10-31T13:17:29;27.80;;;24.88;;
27800;SDS011;15181;49.112;11.930;2022-10-31T13:20:05;27.35;;;25.00;;
27800;SDS011;15181;49.112;11.930;2022-10-31T13:22:44;27.85;;;25.25;;
27800;SDS011;15181;49.112;11.930;2022-10-31T13:25:14;28.13;;;25.27;;
27800;SDS011;15181;49.112;11.930;2022-10-31T13:27:45;26.77;;;24.27;;
27800;SDS011;15181;49.112;11.930;2022-10-31T13:30:16;28.83;;;25.95;;
27800;SDS011;15181;49.112;11.930;2022-10-31T13:32:48;29.08;;;26.48;;
27800;SDS011;15181;49.112;11.930;2022-10-31T13:35:23;27.73;;;25.45;;
27800;SDS011;15181;49.112;11.930;2022-10-31T13:38:04;28.17;;;25.67;;
27800;SDS011;15181;49.112;11.930;2022-10-31T13:40:42;29.33;;;26.50;;
27800;SDS011;15181;49.112;11.930;2022-10-31T13:43:21;28.90;;;26.30;;
27800;SDS011;15181;49.112;11.930;2022-10-31T13:45:56;29.23;;;26.50;;
27800;SDS011;15181;49.112;11.930;2022-10-31T13:48:33;28.83;;;25.65;;
27800;SDS011;15181;49.112;11.930;2022-10-31T13:51:03;29.25;;;26.17;;
27800;SDS011;15181;49.112;11.930;2022-10-31T13:53:39;29.48;;;26.83;;
27800;SDS011;15181;49.112;11.930;2022-10-31T13:56:13;34.45;;;31.05;;
27800;SDS011;15181;49.112;11.930;2022-10-31T13:58:58;29.10;;;26.58;;
27800;SDS011;15181;49.112;11.930;2022-10-31T14:01:28;33.22;;;29.88;;
27800;SDS011;15181;49.112;11.930;2022-10-31T14:03:58;29.15;;;26.40;;
27800;SDS011;15181;49.112;11.930;2022-10-31T14:06:37;30.95;;;27.95;;
27800;SDS011;15181;49.112;11.930;2022-10-31T14:09:17;29.30;;;26.77;;
27800;SDS011;15181;49.112;11.930;2022-10-31T14:11:47;29.20;;;26.80;;
27800;SDS011;15181;49.112;11.930;2022-10-31T14:14:16;29.10;;;26.75;;
27800;SDS011;15181;49.112;11.930;2022-10-31T14:16:46;29.98;;;27.27;;
27800;SDS011;15181;49.112;11.930;2022-10-31T14:19:22;29.48;;;26.88;;
27800;SDS011;15181;49.112;11.930;2022-10-31T14:21:49;28.58;;;26.10;;
27800;SDS011;15181;49.112;11.930;2022-10-31T14:24:31;30.92;;;28.15;;
27800;SDS011;15181;49.112;11.930;2022-10-31T14:27:03;30.08;;;27.27;;
27800;SDS011;15181;49.112;11.930;2022-10-31T14:29:51;29.48;;;26.83;;
27800;SDS011;15181;49.112;11.930;2022-10-31T14:32:20;29.00;;;26.67;;
27800;SDS011;15181;49.112;11.930;2022-10-31T14:34:52;28.95;;;26.30;;
27800;SDS011;15181;49.112;11.930;2022-10-31T14:40:22;29.23;;;26.40;;
27800;SDS011;15181;49.112;11.930;2022-10-31T14:43:03;27.48;;;25.00;;
27800;SDS011;15181;49.112;11.930;2022-10-31T14:45:55;28.08;;;25.65;;
27800;SDS011;15181;49.112;11.930;2022-10-31T14:51:29;27.65;;;25.40;;
27800;SDS011;15181;49.112;11.930;2022-10-31T14:54:04;25.77;;;23.88;;
27800;SDS011;15181;49.112;11.930;2022-10-31T14:56:34;28.80;;;26.50;;